Time;durP1;ratioP1;P1;durP2;ratioP2;P2;SDS_P1;SDS_P2;PMS_P1;PMS_P2;Temp;Humidity;BMP_temperature;BMP_pressure;BME280_temperature;BME280_humidity;BME280_pressure;Samples;Min_cycle;Max_cycle;Signal;HPM_P1;HPM_P2
2023/07/15 00:01:42;;;;;;;;;;;18.90;99.90;;;;;;6281684;22;19910;-81
2023/07/15 00:04:13;;;;;;;;;;;18.80;99.90;;;;;;6256432;22;19913;-81
2023/07/15 00:06:38;;;;;;;;;;;18.60;99.90;;;;;;6307330;22;19911;-81
2023/07/15 00:09:04;;;;;;;;;;;18.50;99.90;;;;;;6281670;22;20384;-81
2023/07/15 00:11:32;;;;;;;;;;;18.40;99.90;;;;;;6281310;22;19907;-81
2023/07/15 00:13:58;;;;;;;;;;;18.20;99.90;;;;;;6281246;22;19910;-81
2023/07/15 00:16:25;;;;;;;;;;;18.10;99.90;;;;;;6281525;22;19903;-80
2023/07/15 00:18:50;;;;;;;;;;;17.90;99.90;;;;;;6307601;22;20208;-81
2023/07/15 00:21:26;;;;;;;;;;;17.80;99.90;;;;;;6307693;22;19909;-80
2023/07/15 00:23:55;;;;;;;;;;;17.70;99.90;;;;;;6261168;22;19930;-79
2023/07/15 00:26:22;;;;;;;;;;;17.40;99.90;;;;;;6311993;22;20211;-80
2023/07/15 00:28:50;;;;;;;;;;;17.30;99.90;;;;;;6309482;22;19910;-80
2023/07/15 00:31:17;;;;;;;;;;;17.20;99.90;;;;;;6256350;22;19903;-80
2023/07/15 00:33:43;;;;;;;;;;;17.20;99.90;;;;;;6281695;22;19927;-80
2023/07/15 00:36:09;;;;;;;;;;;17.10;99.90;;;;;;6255900;22;19911;-80
2023/07/15 00:38:35;;;;;;;;;;;17.00;99.90;;;;;;6307093;22;20329;-81
2023/07/15 00:41:01;;;;;;;;;;;17.00;99.90;;;;;;6255454;22;19951;-80
2023/07/15 00:43:46;;;;;;;;;;;16.90;99.90;;;;;;6306822;22;19985;-80
2023/07/15 00:46:26;;;;;;;;;;;16.90;99.90;;;;;;6281047;22;19906;-80
2023/07/15 00:48:55;;;;;;;;;;;16.80;99.90;;;;;;6281143;22;19903;-81
2023/07/15 00:51:21;;;;;;;;;;;16.80;99.90;;;;;;6281139;22;19905;-81
2023/07/15 00:53:51;;;;;;;;;;;16.80;99.90;;;;;;6306816;22;19910;-80
2023/07/15 00:56:17;;;;;;;;;;;16.70;99.90;;;;;;6255267;22;19941;-80
2023/07/15 00:58:42;;;;;;;;;;;16.70;99.90;;;;;;6281052;22;19903;-80
2023/07/15 01:01:10;;;;;;;;;;;16.60;99.90;;;;;;6255716;22;19915;-81
2023/07/15 01:03:37;;;;;;;;;;;16.60;99.90;;;;;;6281394;22;19899;-81
2023/07/15 01:06:18;;;;;;;;;;;16.50;99.90;;;;;;6306592;22;19914;-80
2023/07/15 01:08:44;;;;;;;;;;;16.60;99.90;;;;;;6307069;22;19926;-80
2023/07/15 01:11:10;;;;;;;;;;;16.70;99.90;;;;;;6281327;22;19899;-80
2023/07/15 01:13:37;;;;;;;;;;;16.70;99.90;;;;;;6256167;22;20307;-81
2023/07/15 01:16:04;;;;;;;;;;;16.70;99.90;;;;;;6255342;22;19903;-81
2023/07/15 01:18:30;;;;;;;;;;;16.70;99.90;;;;;;6280908;22;19989;-80
2023/07/15 01:20:59;;;;;;;;;;;16.70;99.90;;;;;;6256153;22;20419;-81
2023/07/15 01:23:30;;;;;;;;;;;16.60;99.90;;;;;;6281097;22;19903;-80
2023/07/15 01:25:56;;;;;;;;;;;16.60;99.90;;;;;;6257228;22;19906;-80
2023/07/15 01:28:22;;;;;;;;;;;16.50;99.90;;;;;;6257491;22;20211;-80
2023/07/15 01:31:22;;;;;;;;;;;16.50;99.90;;;;;;6283237;22;19993;-80
2023/07/15 01:33:48;;;;;;;;;;;16.50;99.90;;;;;;6309082;22;19903;-80
2023/07/15 01:36:14;;;;;;;;;;;16.40;99.90;;;;;;6283586;22;20238;-80
2023/07/15 01:38:40;;;;;;;;;;;16.50;99.90;;;;;;6283122;22;19903;-80
2023/07/15 01:41:07;;;;;;;;;;;16.50;99.90;;;;;;6318412;22;19906;-78
2023/07/15 01:43:33;;;;;;;;;;;16.50;99.90;;;;;;6260329;22;19909;-80
2023/07/15 01:45:59;;;;;;;;;;;16.50;99.90;;;;;;6309621;22;20302;-79
2023/07/15 01:48:25;;;;;;;;;;;16.50;99.90;;;;;;6283530;22;19902;-80
2023/07/15 01:50:51;;;;;;;;;;;16.50;99.90;;;;;;6283078;22;19973;-80
2023/07/15 01:53:17;;;;;;;;;;;16.50;99.90;;;;;;6257478;22;19907;-81
2023/07/15 01:55:43;;;;;;;;;;;16.40;99.90;;;;;;6257355;22;19985;-80
2023/07/15 01:58:09;;;;;;;;;;;16.40;99.90;;;;;;6282856;22;19903;-80
2023/07/15 02:00:35;;;;;;;;;;;16.30;99.90;;;;;;6257163;22;20326;-80
2023/07/15 02:03:01;;;;;;;;;;;16.30;99.90;;;;;;6309921;22;19903;-80
2023/07/15 02:05:26;;;;;;;;;;;16.20;99.90;;;;;;6257168;22;20311;-81
2023/07/15 02:07:56;;;;;;;;;;;16.20;99.90;;;;;;6308476;22;19952;-80
2023/07/15 02:10:23;;;;;;;;;;;16.20;99.90;;;;;;6282409;22;19903;-81
2023/07/15 02:12:51;;;;;;;;;;;16.10;99.90;;;;;;6257257;22;20277;-81
2023/07/15 02:15:17;;;;;;;;;;;16.10;99.90;;;;;;6282440;22;20311;-81
2023/07/15 02:17:43;;;;;;;;;;;16.00;99.90;;;;;;6282605;22;19938;-81
2023/07/15 02:20:09;;;;;;;;;;;16.00;99.90;;;;;;6256966;22;19906;-81
2023/07/15 02:23:05;;;;;;;;;;;16.00;99.90;;;;;;6282676;22;19903;-81
2023/07/15 02:25:32;;;;;;;;;;;15.90;99.90;;;;;;6256890;22;20311;-81
2023/07/15 02:27:57;;;;;;;;;;;15.90;99.90;;;;;;6255347;22;19914;-81
2023/07/15 02:30:23;;;;;;;;;;;16.00;99.90;;;;;;6280527;22;19902;-81
2023/07/15 02:36:18;;;;;;;;;;;16.00;99.90;;;;;;6308229;22;20346;-81
2023/07/15 02:38:44;;;;;;;;;;;16.00;99.90;;;;;;6306471;22;20261;-81
2023/07/15 02:41:10;;;;;;;;;;;16.00;99.90;;;;;;6255026;22;19910;-81
2023/07/15 02:43:36;;;;;;;;;;;16.00;99.90;;;;;;6280300;22;19914;-81
2023/07/15 02:46:01;;;;;;;;;;;16.10;99.90;;;;;;6254885;22;19906;-81
2023/07/15 02:48:27;;;;;;;;;;;16.00;99.90;;;;;;6306541;22;20319;-81
2023/07/15 02:50:53;;;;;;;;;;;16.00;99.90;;;;;;6307864;22;19913;-81
2023/07/15 02:53:19;;;;;;;;;;;16.00;99.90;;;;;;6280351;22;19906;-81
2023/07/15 02:55:45;;;;;;;;;;;16.00;99.90;;;;;;6255185;22;20028;-81
2023/07/15 02:58:14;;;;;;;;;;;16.10;99.90;;;;;;6306251;22;19949;-81
2023/07/15 03:00:52;;;;;;;;;;;16.20;99.90;;;;;;6307804;22;19930;-81
2023/07/15 03:03:18;;;;;;;;;;;16.20;99.90;;;;;;6280456;22;19902;-80
2023/07/15 03:05:47;;;;;;;;;;;16.30;99.90;;;;;;6255069;22;20341;-81
2023/07/15 03:08:13;;;;;;;;;;;16.40;99.90;;;;;;6306176;22;19903;-81
2023/07/15 03:10:40;;;;;;;;;;;16.40;99.90;;;;;;6307582;22;19913;-81
2023/07/15 03:13:06;;;;;;;;;;;16.40;99.90;;;;;;6255021;22;19986;-81
2023/07/15 03:15:32;;;;;;;;;;;16.50;99.90;;;;;;6280780;22;19934;-81
2023/07/15 03:17:58;;;;;;;;;;;16.40;99.90;;;;;;6254890;22;19925;-81
2023/07/15 03:20:25;;;;;;;;;;;16.50;99.90;;;;;;6255001;22;20226;-81
2023/07/15 03:22:51;;;;;;;;;;;16.40;99.90;;;;;;6280398;22;19907;-81
2023/07/15 03:25:19;;;;;;;;;;;16.50;99.90;;;;;;6306154;22;19941;-81
2023/07/15 03:28:40;;;;;;;;;;;16.50;99.90;;;;;;5132001;27;20246;-80
2023/07/15 03:31:06;;;;;;;;;;;16.50;99.90;;;;;;5165445;27;19911;-80
2023/07/15 03:33:32;;;;;;;;;;;16.50;99.90;;;;;;5130642;28;20006;-80
2023/07/15 03:36:00;;;;;;;;;;;16.50;99.90;;;;;;5126725;28;19915;-80
2023/07/15 03:38:26;;;;;;;;;;;16.60;99.90;;;;;;5129686;28;19912;-80
2023/07/15 03:40:53;;;;;;;;;;;16.60;99.90;;;;;;5129747;27;20547;-81
2023/07/15 03:43:19;;;;;;;;;;;16.50;99.90;;;;;;5130061;28;19912;-81
2023/07/15 03:45:44;;;;;;;;;;;16.50;99.90;;;;;;5130059;28;19912;-81
2023/07/15 03:48:10;;;;;;;;;;;16.50;99.90;;;;;;5129864;28;20378;-80
2023/07/15 03:50:36;;;;;;;;;;;16.50;99.90;;;;;;5131229;27;20048;-80
2023/07/15 03:53:01;;;;;;;;;;;16.50;99.90;;;;;;5129701;28;19951;-81
2023/07/15 03:55:27;;;;;;;;;;;16.50;99.90;;;;;;5129599;27;20014;-81
2023/07/15 03:57:53;;;;;;;;;;;16.50;99.90;;;;;;5146480;27;20263;-80
2023/07/15 04:00:19;;;;;;;;;;;16.50;99.90;;;;;;5164117;27;19911;-80
2023/07/15 04:02:45;;;;;;;;;;;16.50;99.90;;;;;;5129540;28;19912;-81
2023/07/15 04:05:42;;;;;;;;;;;16.60;99.90;;;;;;5129424;28;19912;-80
2023/07/15 04:08:08;;;;;;;;;;;16.80;99.90;;;;;;5139064;27;19965;-80
2023/07/15 04:10:33;;;;;;;;;;;17.00;99.90;;;;;;5111770;28;19973;-80
2023/07/15 04:12:59;;;;;;;;;;;17.10;99.90;;;;;;5111970;28;19907;-80
2023/07/15 04:15:24;;;;;;;;;;;17.20;99.90;;;;;;5129083;27;19911;-80
2023/07/15 04:17:50;;;;;;;;;;;17.20;99.90;;;;;;5128872;28;19915;-81
2023/07/15 04:20:17;;;;;;;;;;;17.30;99.90;;;;;;5128835;27;20013;-80
2023/07/15 04:22:43;;;;;;;;;;;17.40;99.90;;;;;;5129085;28;20396;-80
2023/07/15 04:25:10;;;;;;;;;;;17.50;99.90;;;;;;5129367;28;19968;-81
2023/07/15 04:27:37;;;;;;;;;;;17.60;99.90;;;;;;5128798;27;19915;-81
2023/07/15 04:30:03;;;;;;;;;;;17.70;99.90;;;;;;5146394;27;20525;-81
2023/07/15 04:32:29;;;;;;;;;;;17.70;99.90;;;;;;5129275;28;19936;-80
2023/07/15 04:34:55;;;;;;;;;;;17.90;99.90;;;;;;5129041;27;19911;-81
2023/07/15 04:37:21;;;;;;;;;;;18.00;99.90;;;;;;5146115;27;19965;-81
2023/07/15 04:39:46;;;;;;;;;;;18.10;99.90;;;;;;5117952;28;20397;-81
2023/07/15 04:42:12;;;;;;;;;;;18.10;99.90;;;;;;5115658;28;19911;-80
2023/07/15 04:44:37;;;;;;;;;;;18.20;99.90;;;;;;5149449;27;19912;-80
2023/07/15 04:47:03;;;;;;;;;;;18.30;99.90;;;;;;5115474;28;19920;-80
2023/07/15 04:49:29;;;;;;;;;;;18.30;99.90;;;;;;5114907;28;19912;-81
2023/07/15 04:51:55;;;;;;;;;;;18.40;99.90;;;;;;5131808;27;19912;-80
2023/07/15 04:54:21;;;;;;;;;;;18.40;99.90;;;;;;5115499;28;19918;-80
2023/07/15 04:56:46;;;;;;;;;;;18.40;99.90;;;;;;5136606;27;19916;-80
2023/07/15 04:59:12;;;;;;;;;;;18.50;99.90;;;;;;5137081;27;19911;-80
2023/07/15 05:01:38;;;;;;;;;;;18.60;99.90;;;;;;5117018;28;19916;-79
2023/07/15 05:04:04;;;;;;;;;;;18.70;99.90;;;;;;5117062;28;20290;-80
2023/07/15 05:09:36;;;;;;;;;;;18.90;99.90;;;;;;5117434;28;19912;-80
2023/07/15 05:12:02;;;;;;;;;;;19.00;99.90;;;;;;5116123;28;20396;-80
2023/07/15 05:14:28;;;;;;;;;;;19.10;99.90;;;;;;5116037;28;19918;-80
2023/07/15 05:16:53;;;;;;;;;;;19.40;99.90;;;;;;5115614;28;19911;-81
2023/07/15 05:19:19;;;;;;;;;;;19.40;99.90;;;;;;5115300;28;19961;-81
2023/07/15 05:21:45;;;;;;;;;;;19.50;99.90;;;;;;5116113;28;19912;-80
2023/07/15 05:24:11;;;;;;;;;;;19.60;99.90;;;;;;5117276;28;19912;-80
2023/07/15 05:26:36;;;;;;;;;;;19.80;99.90;;;;;;5133335;27;19920;-80
2023/07/15 05:29:02;;;;;;;;;;;19.90;99.90;;;;;;5115857;28;19908;-81
2023/07/15 05:31:28;;;;;;;;;;;20.10;99.90;;;;;;5131585;27;19912;-80
2023/07/15 05:33:54;;;;;;;;;;;20.20;99.90;;;;;;5114281;28;20381;-81
2023/07/15 05:36:19;;;;;;;;;;;20.40;99.90;;;;;;5131176;27;19912;-81
2023/07/15 05:38:45;;;;;;;;;;;20.40;99.90;;;;;;5113794;28;19911;-81
2023/07/15 05:41:14;;;;;;;;;;;20.60;99.90;;;;;;5114008;28;20259;-80
2023/07/15 05:43:39;;;;;;;;;;;20.80;99.90;;;;;;5114144;28;19998;-80
2023/07/15 05:46:05;;;;;;;;;;;20.90;99.90;;;;;;5113833;28;19954;-81
2023/07/15 05:48:31;;;;;;;;;;;21.00;99.90;;;;;;5112034;28;20360;-81
2023/07/15 05:50:57;;;;;;;;;;;21.10;99.90;;;;;;5131301;27;19916;-81
2023/07/15 05:53:23;;;;;;;;;;;21.20;99.90;;;;;;5103988;28;20374;-80
2023/07/15 05:55:49;;;;;;;;;;;21.30;99.90;;;;;;5095799;28;20382;-80
2023/07/15 05:58:15;;;;;;;;;;;21.40;99.90;;;;;;5110626;28;20393;-80
2023/07/15 06:00:41;;;;;;;;;;;21.50;99.90;;;;;;5112621;28;19912;-80
2023/07/15 06:03:07;;;;;;;;;;;21.60;99.90;;;;;;5113483;28;20378;-80
2023/07/15 06:05:32;;;;;;;;;;;21.70;99.90;;;;;;5130349;27;19931;-80
2023/07/15 06:07:58;;;;;;;;;;;21.80;99.90;;;;;;5112315;28;19916;-80
2023/07/15 06:10:24;;;;;;;;;;;21.80;99.90;;;;;;5113335;28;19919;-80
2023/07/15 06:12:50;;;;;;;;;;;21.80;99.90;;;;;;5112879;28;19947;-80
2023/07/15 06:15:16;;;;;;;;;;;21.90;99.90;;;;;;5130437;27;19912;-80
2023/07/15 06:17:42;;;;;;;;;;;22.00;99.90;;;;;;5112606;28;19993;-80
2023/07/15 06:20:08;;;;;;;;;;;22.10;99.90;;;;;;5111314;28;19912;-80
2023/07/15 06:22:33;;;;;;;;;;;22.10;99.90;;;;;;5085735;28;20343;-80
2023/07/15 06:24:59;;;;;;;;;;;22.20;99.90;;;;;;5112549;28;20340;-81
2023/07/15 06:27:25;;;;;;;;;;;22.30;99.90;;;;;;5114192;28;19916;-81
2023/07/15 06:29:50;;;;;;;;;;;22.40;99.90;;;;;;5103902;28;19920;-80
2023/07/15 06:32:16;;;;;;;;;;;22.40;99.90;;;;;;5129417;27;20336;-81
2023/07/15 06:34:42;;;;;;;;;;;22.50;99.90;;;;;;5112169;28;19976;-81
2023/07/15 06:37:07;;;;;;;;;;;22.60;99.90;;;;;;5127941;27;20248;-81
2023/07/15 06:39:34;;;;;;;;;;;22.70;99.90;;;;;;5108051;28;19912;-80
2023/07/15 06:42:00;;;;;;;;;;;22.80;99.90;;;;;;5094065;28;19912;-80
2023/07/15 06:44:26;;;;;;;;;;;22.90;99.90;;;;;;5113046;28;20366;-80
2023/07/15 06:46:52;;;;;;;;;;;23.00;99.90;;;;;;5109651;28;19922;-80
2023/07/15 06:49:18;;;;;;;;;;;23.00;99.90;;;;;;5112549;28;19911;-81
2023/07/15 06:51:44;;;;;;;;;;;23.00;99.90;;;;;;5109104;28;19923;-81
2023/07/15 06:54:10;;;;;;;;;;;23.10;99.90;;;;;;5123529;27;19912;-80
2023/07/15 06:56:36;;;;;;;;;;;23.20;99.90;;;;;;5106627;28;20272;-81
2023/07/15 06:59:02;;;;;;;;;;;23.30;99.90;;;;;;5111265;28;19923;-80
2023/07/15 07:01:28;;;;;;;;;;;23.30;99.90;;;;;;5106556;28;19918;-81
2023/07/15 07:03:54;;;;;;;;;;;23.50;99.90;;;;;;5127069;27;20054;-80
2023/07/15 07:06:20;;;;;;;;;;;23.70;99.90;;;;;;5095096;28;19938;-81
2023/07/15 07:08:45;;;;;;;;;;;24.00;99.90;;;;;;5140631;27;19919;-80
2023/07/15 07:11:11;;;;;;;;;;;24.40;99.90;;;;;;5112570;28;19915;-80
2023/07/15 07:13:37;;;;;;;;;;;24.80;99.90;;;;;;5112349;28;19976;-81
2023/07/15 07:16:02;;;;;;;;;;;25.20;99.90;;;;;;5112531;28;19911;-81
2023/07/15 07:18:28;;;;;;;;;;;25.40;99.90;;;;;;5112843;28;19916;-81
2023/07/15 07:20:57;;;;;;;;;;;25.20;99.90;;;;;;5113347;28;19951;-81
2023/07/15 07:23:24;;;;;;;;;;;25.40;99.90;;;;;;5147265;27;19951;-80
2023/07/15 07:25:50;;;;;;;;;;;25.90;99.90;;;;;;5113296;28;19907;-81
2023/07/15 07:28:16;;;;;;;;;;;26.00;99.90;;;;;;5112547;28;20274;-81
2023/07/15 07:30:42;;;;;;;;;;;25.80;99.90;;;;;;5113839;28;19916;-81
2023/07/15 07:33:08;;;;;;;;;;;25.50;99.90;;;;;;5129683;27;19919;-81
2023/07/15 07:35:33;;;;;;;;;;;25.40;99.90;;;;;;5113766;27;19912;-81
2023/07/15 07:37:59;;;;;;;;;;;25.50;99.90;;;;;;5112618;28;20343;-81
2023/07/15 07:40:26;;;;;;;;;;;25.60;99.90;;;;;;5112428;28;19922;-81
2023/07/15 07:42:52;;;;;;;;;;;25.70;99.90;;;;;;5112500;28;20507;-81
2023/07/15 07:45:17;;;;;;;;;;;25.80;99.90;;;;;;5112382;28;19912;-81
2023/07/15 07:47:43;;;;;;;;;;;25.80;99.90;;;;;;5112289;28;19955;-81
2023/07/15 07:50:09;;;;;;;;;;;26.20;99.90;;;;;;5112184;28;19966;-81
2023/07/15 07:52:35;;;;;;;;;;;26.40;99.90;;;;;;5112322;28;19978;-81
2023/07/15 07:55:03;;;;;;;;;;;26.50;99.90;;;;;;5146556;27;19996;-81
2023/07/15 07:57:29;;;;;;;;;;;26.30;99.90;;;;;;5112151;28;19915;-82
2023/07/15 07:59:55;;;;;;;;;;;26.20;99.90;;;;;;5112191;28;19998;-82
2023/07/15 08:02:20;;;;;;;;;;;26.30;99.90;;;;;;5112361;28;19966;-81
2023/07/15 08:04:48;;;;;;;;;;;26.20;99.90;;;;;;5112202;28;19919;-81
2023/07/15 08:07:14;;;;;;;;;;;26.30;99.90;;;;;;5108090;28;19927;-81
2023/07/15 08:09:40;;;;;;;;;;;26.70;99.90;;;;;;5112614;28;19915;-81
2023/07/15 08:12:08;;;;;;;;;;;27.00;99.90;;;;;;5113789;28;19907;-81
2023/07/15 08:14:34;;;;;;;;;;;27.00;99.90;;;;;;5114596;28;19911;-81
2023/07/15 08:16:59;;;;;;;;;;;26.80;99.90;;;;;;5126987;28;19900;-81
2023/07/15 08:19:26;;;;;;;;;;;26.50;99.90;;;;;;5116552;28;19919;-81
2023/07/15 08:21:51;;;;;;;;;;;26.20;99.90;;;;;;5133299;27;19915;-81
2023/07/15 08:24:17;;;;;;;;;;;26.00;99.90;;;;;;5133103;27;19911;-81
2023/07/15 08:26:43;;;;;;;;;;;26.30;99.90;;;;;;5115933;28;19922;-81
2023/07/15 08:29:08;;;;;;;;;;;26.50;99.90;;;;;;5116125;28;19927;-81
2023/07/15 08:31:34;;;;;;;;;;;26.80;99.90;;;;;;5115601;28;20359;-81
2023/07/15 08:34:00;;;;;;;;;;;27.10;99.90;;;;;;5115460;28;19961;-81
2023/07/15 08:36:25;;;;;;;;;;;27.20;99.90;;;;;;5115769;28;19915;-81
2023/07/15 08:38:53;;;;;;;;;;;27.60;99.90;;;;;;5115556;28;19931;-82
2023/07/15 08:41:22;;;;;;;;;;;28.00;99.90;;;;;;5150127;27;19926;-81
2023/07/15 08:43:47;;;;;;;;;;;28.30;99.60;;;;;;5115024;28;19912;-82
2023/07/15 08:46:33;;;;;;;;;;;29.00;99.50;;;;;;5115463;28;19935;-82
2023/07/15 08:49:00;;;;;;;;;;;29.50;99.10;;;;;;5112985;28;19916;-82
2023/07/15 08:51:29;;;;;;;;;;;29.80;97.60;;;;;;5115173;28;19916;-82
2023/07/15 08:53:56;;;;;;;;;;;31.00;95.80;;;;;;5098317;28;19911;-82
2023/07/15 08:56:24;;;;;;;;;;;32.00;94.30;;;;;;5132152;27;19968;-82
2023/07/15 08:58:50;;;;;;;;;;;33.20;92.30;;;;;;5115400;28;19994;-82
2023/07/15 09:01:15;;;;;;;;;;;33.10;89.80;;;;;;5115037;28;19989;-82
2023/07/15 09:03:41;;;;;;;;;;;33.40;90.00;;;;;;5115486;28;19965;-82
2023/07/15 09:06:07;;;;;;;;;;;33.80;86.90;;;;;;5114935;28;20441;-82
2023/07/15 09:08:33;;;;;;;;;;;34.30;83.50;;;;;;5114683;28;19916;-82
2023/07/15 09:10:59;;;;;;;;;;;34.80;81.30;;;;;;5114685;28;20386;-82
2023/07/15 09:13:28;;;;;;;;;;;35.20;76.50;;;;;;5114800;28;19915;-82
2023/07/15 09:15:55;;;;;;;;;;;35.10;75.70;;;;;;5114503;28;19912;-82
2023/07/15 09:18:21;;;;;;;;;;;34.40;76.30;;;;;;5114703;28;19934;-82
2023/07/15 09:20:47;;;;;;;;;;;33.20;78.70;;;;;;5114273;28;19912;-82
2023/07/15 09:23:13;;;;;;;;;;;32.20;80.20;;;;;;5114361;28;19918;-82
2023/07/15 09:25:47;;;;;;;;;;;31.20;83.00;;;;;;5115036;28;20416;-82
2023/07/15 09:28:13;;;;;;;;;;;30.60;84.10;;;;;;5131617;27;19922;-82
2023/07/15 09:30:39;;;;;;;;;;;31.10;86.60;;;;;;5113561;28;20006;-82
2023/07/15 09:33:06;;;;;;;;;;;31.60;83.20;;;;;;5115199;28;20644;-82
2023/07/15 09:35:41;;;;;;;;;;;32.20;82.30;;;;;;5115194;28;20542;-82
2023/07/15 09:38:09;;;;;;;;;;;32.60;80.30;;;;;;5114157;28;19912;-82
2023/07/15 09:40:41;;;;;;;;;;;32.80;80.80;;;;;;5113938;28;19912;-82
2023/07/15 09:43:07;;;;;;;;;;;33.50;80.20;;;;;;5115006;28;19919;-82
2023/07/15 09:45:34;;;;;;;;;;;33.90;78.40;;;;;;5110150;28;20466;-82
2023/07/15 09:48:10;;;;;;;;;;;33.60;76.10;;;;;;5111104;28;19926;-82
2023/07/15 09:50:36;;;;;;;;;;;32.80;77.00;;;;;;5113547;28;19923;-82
2023/07/15 09:53:02;;;;;;;;;;;32.60;77.70;;;;;;5113309;28;20383;-82
2023/07/15 09:55:29;;;;;;;;;;;33.10;76.30;;;;;;5130796;27;19916;-82
2023/07/15 09:57:58;;;;;;;;;;;33.80;75.50;;;;;;5113482;28;19919;-82
2023/07/15 10:00:27;;;;;;;;;;;35.00;74.20;;;;;;5130579;27;19912;-82
2023/07/15 10:02:56;;;;;;;;;;;35.60;69.90;;;;;;5113942;28;19918;-82
2023/07/15 10:05:22;;;;;;;;;;;34.70;70.30;;;;;;5114957;28;19916;-82
2023/07/15 10:07:47;;;;;;;;;;;33.70;69.80;;;;;;5112963;28;19915;-81
2023/07/15 10:10:13;;;;;;;;;;;32.80;72.90;;;;;;5113035;28;20007;-82
2023/07/15 10:12:39;;;;;;;;;;;32.80;73.20;;;;;;5113139;28;19912;-82
2023/07/15 10:15:05;;;;;;;;;;;33.20;72.50;;;;;;5113015;28;20409;-82
2023/07/15 10:17:35;;;;;;;;;;;32.80;71.50;;;;;;5112988;28;19911;-82
2023/07/15 10:20:11;;;;;;;;;;;32.50;73.20;;;;;;5113341;28;19916;-81
2023/07/15 10:22:37;;;;;;;;;;;31.60;74.80;;;;;;5113380;28;19918;-82
2023/07/15 10:25:04;;;;;;;;;;;30.70;75.80;;;;;;5113532;28;19955;-81
2023/07/15 10:27:31;;;;;;;;;;;30.30;77.50;;;;;;5147286;27;19951;-82
2023/07/15 10:30:15;;;;;;;;;;;30.20;79.60;;;;;;5112895;28;19954;-81
2023/07/15 10:33:08;;;;;;;;;;;30.10;79.60;;;;;;5107704;28;20394;-82
2023/07/15 10:35:45;;;;;;;;;;;30.20;80.20;;;;;;5113361;28;19943;-81
2023/07/15 10:38:31;;;;;;;;;;;30.50;78.50;;;;;;5112711;28;19912;-82
2023/07/15 10:41:04;;;;;;;;;;;30.90;79.60;;;;;;5130436;27;19958;-82
2023/07/15 10:43:32;;;;;;;;;;;31.20;78.00;;;;;;5114353;28;19912;-82
2023/07/15 10:45:59;;;;;;;;;;;31.40;79.10;;;;;;5113140;28;19912;-82
2023/07/15 10:48:25;;;;;;;;;;;31.60;76.40;;;;;;5112832;28;19919;-82
2023/07/15 10:50:55;;;;;;;;;;;31.70;77.90;;;;;;5112833;28;19916;-82
2023/07/15 10:53:23;;;;;;;;;;;32.40;77.50;;;;;;5112850;28;19911;-82
2023/07/15 10:55:59;;;;;;;;;;;33.10;75.20;;;;;;5112581;28;19918;-82
2023/07/15 10:58:26;;;;;;;;;;;33.50;74.00;;;;;;5095204;28;19922;-82
2023/07/15 11:00:56;;;;;;;;;;;33.40;71.40;;;;;;5129055;27;20010;-82
2023/07/15 11:03:22;;;;;;;;;;;33.70;70.10;;;;;;5133857;27;20650;-82
2023/07/15 11:05:48;;;;;;;;;;;34.20;71.50;;;;;;5113520;28;19912;-82
2023/07/15 11:08:16;;;;;;;;;;;34.50;70.80;;;;;;5112315;28;20319;-82
2023/07/15 11:10:43;;;;;;;;;;;34.50;67.50;;;;;;5129277;27;19968;-82
2023/07/15 11:13:11;;;;;;;;;;;34.00;67.50;;;;;;5112064;28;20403;-81
2023/07/15 11:15:37;;;;;;;;;;;33.00;69.80;;;;;;5129151;27;19911;-82
2023/07/15 11:18:03;;;;;;;;;;;32.40;71.10;;;;;;5111827;28;20053;-83
2023/07/15 11:20:28;;;;;;;;;;;32.40;70.80;;;;;;5111636;28;19912;-83
2023/07/15 11:22:54;;;;;;;;;;;32.30;70.80;;;;;;5112283;28;19919;-82
2023/07/15 11:25:20;;;;;;;;;;;32.00;72.40;;;;;;5112331;28;19916;-82
2023/07/15 11:27:46;;;;;;;;;;;32.10;72.60;;;;;;5112149;28;19926;-82
2023/07/15 11:30:12;;;;;;;;;;;32.00;72.20;;;;;;5130272;28;19916;-82
2023/07/15 11:32:37;;;;;;;;;;;31.80;72.40;;;;;;5113096;28;19918;-81
2023/07/15 11:35:12;;;;;;;;;;;31.50;73.40;;;;;;5147258;27;19947;-81
2023/07/15 11:37:42;;;;;;;;;;;31.40;73.10;;;;;;5122212;28;19912;-81
2023/07/15 11:40:13;;;;;;;;;;;31.10;74.30;;;;;;5131561;28;20733;-82
2023/07/15 11:42:39;;;;;;;;;;;30.60;75.70;;;;;;5114875;28;19916;-81
2023/07/15 11:45:05;;;;;;;;;;;30.20;76.80;;;;;;5113495;28;19914;-82
2023/07/15 11:47:33;;;;;;;;;;;30.00;77.40;;;;;;5112439;28;19920;-81
2023/07/15 11:49:59;;;;;;;;;;;29.90;78.10;;;;;;5115385;28;20295;-82
2023/07/15 11:52:24;;;;;;;;;;;29.90;78.70;;;;;;5126019;27;19919;-82
2023/07/15 11:54:50;;;;;;;;;;;30.00;78.60;;;;;;5117129;28;20081;-82
2023/07/15 11:57:26;;;;;;;;;;;29.80;79.10;;;;;;5116188;28;19922;-82
2023/07/15 11:59:52;;;;;;;;;;;29.60;79.20;;;;;;5116785;28;19923;-82
2023/07/15 12:02:19;;;;;;;;;;;29.30;79.70;;;;;;5116034;28;19912;-81
2023/07/15 12:04:45;;;;;;;;;;;28.90;80.30;;;;;;5115887;28;19972;-81
2023/07/15 12:07:11;;;;;;;;;;;28.50;80.10;;;;;;5116235;28;19915;-81
2023/07/15 12:09:36;;;;;;;;;;;28.40;80.80;;;;;;5115844;28;19919;-82
2023/07/15 12:12:02;;;;;;;;;;;28.30;81.80;;;;;;5116863;28;19911;-81
2023/07/15 12:14:31;;;;;;;;;;;28.80;80.90;;;;;;5115547;28;19961;-82
2023/07/15 12:16:59;;;;;;;;;;;29.40;79.70;;;;;;5133005;27;20057;-81
2023/07/15 12:19:25;;;;;;;;;;;30.20;78.70;;;;;;5115932;28;20033;-82
2023/07/15 12:21:52;;;;;;;;;;;30.80;76.90;;;;;;5115489;28;20374;-82
2023/07/15 12:24:17;;;;;;;;;;;31.30;76.10;;;;;;5115491;28;19995;-82
2023/07/15 12:26:43;;;;;;;;;;;31.60;75.30;;;;;;5116462;28;19958;-82
2023/07/15 12:29:09;;;;;;;;;;;31.80;74.80;;;;;;5115383;28;19956;-82
2023/07/15 12:31:35;;;;;;;;;;;32.00;74.60;;;;;;5115417;28;19912;-82
2023/07/15 12:34:00;;;;;;;;;;;32.30;74.00;;;;;;5115417;28;20252;-82
2023/07/15 12:36:26;;;;;;;;;;;32.60;73.80;;;;;;5115203;28;20377;-82
2023/07/15 12:38:52;;;;;;;;;;;33.10;73.00;;;;;;5115251;28;19916;-83
2023/07/15 12:41:17;;;;;;;;;;;34.10;71.30;;;;;;5115010;28;19911;-81
2023/07/15 12:43:43;;;;;;;;;;;34.50;67.90;;;;;;5115446;28;19912;-83
2023/07/15 12:46:09;;;;;;;;;;;34.50;66.50;;;;;;5115258;28;19912;-82
2023/07/15 12:48:36;;;;;;;;;;;34.00;67.10;;;;;;5115959;27;20405;-83
2023/07/15 12:51:01;;;;;;;;;;;33.70;66.70;;;;;;5114805;28;20331;-82
2023/07/15 12:53:27;;;;;;;;;;;33.50;67.00;;;;;;5115081;28;20002;-82
2023/07/15 12:55:55;;;;;;;;;;;33.60;65.40;;;;;;5115027;28;19912;-82
2023/07/15 12:58:22;;;;;;;;;;;33.50;64.60;;;;;;5098010;28;19912;-83
2023/07/15 13:00:48;;;;;;;;;;;32.80;67.20;;;;;;5114309;28;19918;-82
2023/07/15 13:03:13;;;;;;;;;;;32.30;68.90;;;;;;5115009;28;19912;-82
2023/07/15 13:05:39;;;;;;;;;;;31.40;68.90;;;;;;5114869;28;20370;-82
2023/07/15 13:08:06;;;;;;;;;;;31.70;67.00;;;;;;5131408;27;20627;-82
2023/07/15 13:10:32;;;;;;;;;;;32.00;66.40;;;;;;5131575;27;20002;-82
2023/07/15 13:12:58;;;;;;;;;;;32.30;65.20;;;;;;5115639;27;19951;-82
2023/07/15 13:15:24;;;;;;;;;;;32.00;66.50;;;;;;5114675;28;19968;-82
2023/07/15 13:17:50;;;;;;;;;;;31.70;68.40;;;;;;5115684;27;19919;-82
2023/07/15 13:20:16;;;;;;;;;;;31.90;69.40;;;;;;5114414;28;20348;-82
2023/07/15 13:22:41;;;;;;;;;;;31.90;67.90;;;;;;5114238;28;20311;-82
2023/07/15 13:25:07;;;;;;;;;;;31.90;69.10;;;;;;5114413;28;19918;-82
2023/07/15 13:27:35;;;;;;;;;;;31.80;69.70;;;;;;5113489;28;19942;-82
2023/07/15 13:30:01;;;;;;;;;;;31.50;69.50;;;;;;5114391;28;19912;-82
2023/07/15 13:32:27;;;;;;;;;;;31.40;70.20;;;;;;5114289;28;19911;-82
2023/07/15 13:34:53;;;;;;;;;;;31.30;70.90;;;;;;5115473;28;19908;-82
2023/07/15 13:37:18;;;;;;;;;;;31.60;69.70;;;;;;5114058;28;19912;-83
2023/07/15 13:39:45;;;;;;;;;;;32.00;69.10;;;;;;5113965;28;19911;-82
2023/07/15 13:42:12;;;;;;;;;;;32.30;69.50;;;;;;5113829;28;20397;-83
2023/07/15 13:44:38;;;;;;;;;;;32.70;68.40;;;;;;5113991;28;19916;-83
2023/07/15 13:47:04;;;;;;;;;;;33.10;69.30;;;;;;5127539;27;19916;-83
2023/07/15 13:49:30;;;;;;;;;;;33.20;68.00;;;;;;5114134;28;19918;-82
2023/07/15 13:51:56;;;;;;;;;;;32.50;66.90;;;;;;5114076;28;20002;-82
2023/07/15 13:54:22;;;;;;;;;;;32.30;67.50;;;;;;5113980;28;19916;-82
2023/07/15 13:56:48;;;;;;;;;;;31.70;68.80;;;;;;5115007;28;19919;-83
2023/07/15 13:59:15;;;;;;;;;;;31.20;70.40;;;;;;5113883;28;20375;-82
2023/07/15 14:01:40;;;;;;;;;;;30.80;71.40;;;;;;5114690;28;19991;-82
2023/07/15 14:04:07;;;;;;;;;;;30.80;72.40;;;;;;5093819;28;20000;-82
2023/07/15 14:06:32;;;;;;;;;;;30.40;72.90;;;;;;5113783;28;19998;-81
2023/07/15 14:08:58;;;;;;;;;;;30.20;73.70;;;;;;5113666;28;20052;-82
2023/07/15 14:11:24;;;;;;;;;;;29.90;73.50;;;;;;5128949;27;19916;-82
2023/07/15 14:13:50;;;;;;;;;;;29.60;75.40;;;;;;5147464;27;19918;-82
2023/07/15 14:16:15;;;;;;;;;;;29.40;76.40;;;;;;5112701;28;20026;-82
2023/07/15 14:18:42;;;;;;;;;;;29.40;76.20;;;;;;5130158;27;20278;-82
2023/07/15 14:21:07;;;;;;;;;;;29.50;76.80;;;;;;5112264;28;19908;-82
2023/07/15 14:23:34;;;;;;;;;;;29.70;76.90;;;;;;5112849;28;19912;-82